createdAt,value
2023-01-04T00:04:13.283Z,79.74
2023-01-04T00:09:15.875Z,78.61
2023-01-04T00:14:19.171Z,79.43
2023-01-04T00:19:20.960Z,80.22
2023-01-04T00:24:22.705Z,79.51
2023-01-04T00:29:24.578Z,79.29
2023-01-04T00:34:31.892Z,79.82
2023-01-04T00:39:33.601Z,78.76
2023-01-04T00:44:35.625Z,79.10
2023-01-04T00:49:37.362Z,78.74
2023-01-04T00:54:39.046Z,79.68
2023-01-04T00:59:40.783Z,78.66
2023-01-04T01:04:42.708Z,78.31
2023-01-04T01:09:44.422Z,78.59
2023-01-04T01:14:46.213Z,78.79
2023-01-04T01:19:47.914Z,79.48
2023-01-04T01:24:50.023Z,79.06
2023-01-04T01:29:51.819Z,79.15
2023-01-04T01:34:53.512Z,79.31
2023-01-04T01:39:55.209Z,79.55
2023-01-04T01:44:59.584Z,79.59
2023-01-04T01:50:02.988Z,80.32
2023-01-04T01:55:09.239Z,81.19
2023-01-04T02:00:14.017Z,81.64
2023-01-04T02:05:19.423Z,81.85
2023-01-04T02:10:21.253Z,82.00
2023-01-04T02:15:28.420Z,82.09
2023-01-04T02:20:36.546Z,82.21
2023-01-04T02:26:05.873Z,82.25
2023-01-04T02:31:29.560Z,81.79
2023-01-04T02:36:48.143Z,81.97
2023-01-04T02:41:54.494Z,82.36
2023-01-04T02:47:40.238Z,82.62
2023-01-04T02:52:42.014Z,82.79
2023-01-04T02:58:02.405Z,82.81
2023-01-04T03:03:36.405Z,82.84
2023-01-04T03:08:49.201Z,82.86
2023-01-04T03:13:51.014Z,82.90
2023-01-04T03:18:57.830Z,82.99
2023-01-04T03:24:20.224Z,83.06
2023-01-04T03:30:08.515Z,83.10
2023-01-04T03:35:22.904Z,82.71
2023-01-04T03:40:50.719Z,82.80
2023-01-04T03:46:16.287Z,82.72
2023-01-04T03:51:23.516Z,82.50
2023-01-04T03:56:29.347Z,82.64
2023-01-04T04:01:31.725Z,82.09
2023-01-04T04:06:52.337Z,82.98
2023-01-04T04:11:53.971Z,83.49
2023-01-04T04:16:55.778Z,83.74
2023-01-04T04:21:57.520Z,83.86
2023-01-04T04:26:59.231Z,83.72
2023-01-04T04:32:01.217Z,82.53
2023-01-04T04:37:03.552Z,82.44
2023-01-04T04:42:05.318Z,81.61
2023-01-04T04:47:07.046Z,81.33
2023-01-04T04:52:08.775Z,81.58
2023-01-04T04:57:10.473Z,82.35
2023-01-04T05:02:12.254Z,83.27
2023-01-04T05:07:14.188Z,83.98
2023-01-04T05:12:34.622Z,84.28
2023-01-04T05:17:36.459Z,83.75
2023-01-04T05:22:38.161Z,82.13
2023-01-04T05:27:40.611Z,82.02
2023-01-04T05:32:42.302Z,82.37
2023-01-04T05:37:44.075Z,82.92
2023-01-04T05:42:45.968Z,83.23
2023-01-04T05:47:51.961Z,83.25
2023-01-04T05:52:53.674Z,83.17
2023-01-04T05:57:55.602Z,83.15
2023-01-04T06:02:57.464Z,83.39
2023-01-04T06:07:59.282Z,83.47
2023-01-04T06:13:01.020Z,83.53
2023-01-04T06:18:02.722Z,83.50
2023-01-04T06:23:04.391Z,83.52
2023-01-04T06:28:06.067Z,83.66
2023-01-04T06:33:07.744Z,83.64
2023-01-04T06:38:09.466Z,83.62
2023-01-04T06:43:11.296Z,83.55
2023-01-04T06:48:18.101Z,83.72
2023-01-04T06:53:20.415Z,83.86
2023-01-04T06:58:22.099Z,83.96
2023-01-04T07:03:23.903Z,83.99
2023-01-04T07:08:26.012Z,84.15
2023-01-04T07:13:27.734Z,84.39
2023-01-04T07:18:29.485Z,84.56
2023-01-04T07:23:31.195Z,84.61
2023-01-04T07:28:51.587Z,84.63
2023-01-04T07:33:53.370Z,84.58
2023-01-04T07:38:55.204Z,84.41
2023-01-04T07:43:56.966Z,84.27
2023-01-04T07:48:58.854Z,84.13
2023-01-04T07:54:00.544Z,84.09
2023-01-04T07:59:02.483Z,84.07
2023-01-04T08:04:06.275Z,83.99
2023-01-04T08:09:08.708Z,83.71
2023-01-04T08:14:10.941Z,83.53
2023-01-04T08:19:18.487Z,83.43
2023-01-04T08:24:20.273Z,83.42
2023-01-04T08:29:21.959Z,82.28
2023-01-04T08:34:23.614Z,81.69
2023-01-04T08:39:25.456Z,81.62
2023-01-04T08:44:27.361Z,81.70
2023-01-04T08:49:29.892Z,81.64
2023-01-04T08:54:32.963Z,81.51
2023-01-04T08:59:34.730Z,81.33
2023-01-04T09:04:36.494Z,81.38
2023-01-04T09:09:38.281Z,80.53
2023-01-04T09:14:40.060Z,79.11
2023-01-04T09:19:41.829Z,78.80
2023-01-04T09:24:43.688Z,78.68
2023-01-04T09:29:45.439Z,78.38
2023-01-04T09:34:47.348Z,78.48
2023-01-04T09:39:49.129Z,78.28
2023-01-04T09:45:22.589Z,78.01
2023-01-04T09:50:36.667Z,78.02
2023-01-04T09:55:48.072Z,77.82
2023-01-04T10:01:15.128Z,77.41
2023-01-04T10:06:17.052Z,77.00
2023-01-04T10:11:34.054Z,76.91
2023-01-04T10:17:12.648Z,76.72
2023-01-04T10:22:27.591Z,76.36
2023-01-04T10:27:44.715Z,76.11
2023-01-04T10:32:55.554Z,75.94
2023-01-04T10:38:10.277Z,75.82
2023-01-04T10:44:09.591Z,75.33
2023-01-04T10:49:16.164Z,74.20
2023-01-04T10:54:33.249Z,73.98
2023-01-04T10:59:51.124Z,73.69
2023-01-04T11:05:09.556Z,73.30
2023-01-04T11:10:18.371Z,73.34
2023-01-04T11:15:20.515Z,72.99
2023-01-04T11:20:26.749Z,72.74
2023-01-04T11:25:36.755Z,71.96
2023-01-04T11:30:48.645Z,71.44
2023-01-04T11:35:53.289Z,71.37
2023-01-04T11:41:07.042Z,71.35
2023-01-04T11:46:22.591Z,71.21
2023-01-04T11:51:27.244Z,70.94
2023-01-04T11:56:31.174Z,70.74
2023-01-04T12:01:36.624Z,70.61
2023-01-04T12:06:48.512Z,70.05
2023-01-04T12:11:56.633Z,70.27
2023-01-04T12:17:13.604Z,70.47
2023-01-04T12:22:38.963Z,70.54
2023-01-04T12:27:47.892Z,70.66
2023-01-04T12:32:49.741Z,70.63
2023-01-04T12:37:51.561Z,70.77
2023-01-04T12:43:14.954Z,70.87
2023-01-04T12:48:47.766Z,70.76
2023-01-04T12:54:32.121Z,70.41
2023-01-04T12:59:36.696Z,70.49
2023-01-04T13:04:41.334Z,70.68
2023-01-04T13:09:50.276Z,70.92
2023-01-04T13:14:59.034Z,71.03
2023-01-04T13:20:13.874Z,71.18
2023-01-04T13:25:17.226Z,71.49
2023-01-04T13:30:37.463Z,71.74
2023-01-04T13:35:39.307Z,71.89
2023-01-04T13:40:49.273Z,71.94
2023-01-04T13:46:03.812Z,72.11
2023-01-04T13:51:37.778Z,72.17
2023-01-04T13:56:40.009Z,72.38
2023-01-04T14:01:45.542Z,72.69
2023-01-04T14:06:49.851Z,73.04
2023-01-04T14:12:09.165Z,73.45
2023-01-04T14:17:20.399Z,73.77
2023-01-04T14:22:34.365Z,74.16
2023-01-04T14:27:37.318Z,74.33
2023-01-04T14:32:39.192Z,74.38
2023-01-04T14:37:41.320Z,74.30
2023-01-04T14:42:43.053Z,74.39
2023-01-04T14:47:44.876Z,74.58
2023-01-04T14:52:54.118Z,75.02
2023-01-04T14:57:55.971Z,75.81
2023-01-04T15:02:57.991Z,76.63
2023-01-04T15:08:01.526Z,77.27
2023-01-04T15:13:04.387Z,78.30
2023-01-04T15:18:06.780Z,79.12
2023-01-04T15:23:09.370Z,80.05
2023-01-04T15:28:11.126Z,80.45
2023-01-04T15:33:13.137Z,81.41
2023-01-04T15:38:18.471Z,81.88
2023-01-04T15:43:20.464Z,82.05
2023-01-04T15:48:22.337Z,82.62
2023-01-04T15:53:24.060Z,82.88
2023-01-04T15:58:25.911Z,82.96
2023-01-04T16:03:27.639Z,83.01
2023-01-04T16:08:31.169Z,83.09
2023-01-04T16:13:33.124Z,83.07
2023-01-04T16:18:35.482Z,83.25
2023-01-04T16:23:37.677Z,83.37
2023-01-04T16:28:39.901Z,83.60
2023-01-04T16:33:42.512Z,83.73
2023-01-04T16:38:45.738Z,83.54
2023-01-04T16:43:50.932Z,83.73
2023-01-04T16:48:59.128Z,83.53
2023-01-04T16:54:06.923Z,83.22
2023-01-04T16:59:08.963Z,83.01
2023-01-04T17:04:11.269Z,82.90
2023-01-04T17:09:15.676Z,83.11
2023-01-04T17:14:17.453Z,82.98
2023-01-04T17:19:19.732Z,82.88
2023-01-04T17:24:21.541Z,82.80
2023-01-04T17:29:23.353Z,82.62
2023-01-04T17:34:25.288Z,82.39
2023-01-04T17:39:30.909Z,82.02
2023-01-04T17:44:32.621Z,81.79
2023-01-04T17:49:34.383Z,81.59
2023-01-04T17:54:36.231Z,81.30
2023-01-04T17:59:38.120Z,81.08
2023-01-04T18:04:39.970Z,81.04
2023-01-04T18:09:41.742Z,81.08
2023-01-04T18:14:46.434Z,80.96
2023-01-04T18:19:48.919Z,80.90
2023-01-04T18:24:50.673Z,80.83
2023-01-04T18:29:54.516Z,80.72
2023-01-04T18:34:56.299Z,80.51
2023-01-04T18:39:58.141Z,80.34
2023-01-04T18:44:59.969Z,80.03
2023-01-04T18:50:02.352Z,79.88
2023-01-04T18:55:04.435Z,79.75
2023-01-04T19:00:09.205Z,79.68
2023-01-04T19:05:12.392Z,79.64
2023-01-04T19:10:14.162Z,79.38
2023-01-04T19:15:16.152Z,79.42
2023-01-04T19:20:18.097Z,79.53
2023-01-04T19:25:24.598Z,79.64
2023-01-04T19:30:30.214Z,79.64
2023-01-04T19:35:32.240Z,79.64
2023-01-04T19:40:34.315Z,79.58
2023-01-04T19:45:40.027Z,79.55
2023-01-04T19:50:41.894Z,79.44
2023-01-04T19:55:43.674Z,79.36
2023-01-04T20:00:54.286Z,79.32
2023-01-04T20:06:02.212Z,79.45
2023-01-04T20:11:05.213Z,79.45
2023-01-04T20:16:08.398Z,79.44
2023-01-04T20:21:12.742Z,79.38
2023-01-04T20:26:17.390Z,79.21
2023-01-04T20:31:19.609Z,79.05
2023-01-04T20:36:26.274Z,79.07
2023-01-04T20:41:32.568Z,79.12
2023-01-04T20:46:34.369Z,79.05
2023-01-04T20:51:36.181Z,79.00
2023-01-04T20:56:38.981Z,79.19
2023-01-04T21:01:40.818Z,79.21
2023-01-04T21:06:42.855Z,79.45
2023-01-04T21:11:44.640Z,79.68
2023-01-04T21:16:46.469Z,79.76
2023-01-04T21:21:48.289Z,79.74
2023-01-04T21:26:50.180Z,79.76
2023-01-04T21:31:51.905Z,79.75
2023-01-04T21:36:54.008Z,79.60
2023-01-04T21:41:55.830Z,79.52
2023-01-04T21:46:57.569Z,79.79
2023-01-04T21:51:59.417Z,80.01
2023-01-04T21:57:01.586Z,80.25
2023-01-04T22:02:03.693Z,80.84
2023-01-04T22:07:05.708Z,81.23
2023-01-04T22:12:11.666Z,81.10
2023-01-04T22:17:13.470Z,81.01
2023-01-04T22:22:15.270Z,81.37
2023-01-04T22:27:16.965Z,81.35
2023-01-04T22:32:18.666Z,81.29
2023-01-04T22:37:20.493Z,81.42
2023-01-04T22:42:22.254Z,81.61
2023-01-04T22:47:24.056Z,81.83
2023-01-04T22:52:25.777Z,81.92
2023-01-04T22:57:27.493Z,82.03
2023-01-04T23:02:29.339Z,81.97
2023-01-04T23:07:31.198Z,82.12
2023-01-04T23:12:33.070Z,82.22
2023-01-04T23:17:34.821Z,82.36
2023-01-04T23:22:36.583Z,82.54
2023-01-04T23:27:38.294Z,82.55
2023-01-04T23:32:40.108Z,82.53
2023-01-04T23:37:41.979Z,82.61
2023-01-04T23:42:43.696Z,82.73
2023-01-04T23:47:48.332Z,83.05
2023-01-04T23:52:50.084Z,83.27
2023-01-04T23:57:53.554Z,83.30
